CheckWX is a tool to help pilots better visualize weather data.  It is not intended as a substitute for an official pre-flight weather briefing.

04:15:33 UTC

FXMM METAR
Moshoeshoe I International Airport
Maseru, Lesotho
Current

15 hours ago

FXMM 241300Z 35016KT 9999 BKN030 FEW035CB 19/12 Q1023 NOSIG
Observed
Apr-24 @ 13:00 UTC
Wind
  • 350° at 16 KTS
Visibility
10,000+ meters
Flight Rules
MVFR
Cloud Levels
  • Broken at 3,000' AGL
  • Few at 3,500' AGL
Temperature
19°C / 66°F
Dewpoint
12°C / 54°F
Humidity
64%
Altimeter
30.21" Hg
Pressure
1022.92 hPa
Previous

16 hours ago

FXMM 241200Z 36014KT 9999 BKN030 FEW035CB 19/11 Q//// NOSIG
Observed
Apr-24 @ 12:00 UTC
Wind
  • 360° at 14 KTS
Visibility
10,000+ meters
Flight Rules
MVFR
Cloud Levels
  • Broken at 3,000' AGL
  • Few at 3,500' AGL
Temperature
19°C / 66°F
Dewpoint
11°C / 52°F
Humidity
60%
Previous

17 hours ago

FXMM 241100Z 36010KT 9999 BKN030 FEW035CB 18/10 Q1024 NOSIG
Observed
Apr-24 @ 11:00 UTC
Wind
  • 360° at 10 KTS
Visibility
10,000+ meters
Flight Rules
MVFR
Cloud Levels
  • Broken at 3,000' AGL
  • Few at 3,500' AGL
Temperature
18°C / 64°F
Dewpoint
10°C / 50°F
Humidity
60%
Altimeter
30.24" Hg
Pressure
1023.92 hPa